Terminal Aerodrome Forecast
Issued by NWS Boston, MA

Home | Current Version | Previous Version | Text Only | Print | Product List | Glossary On
Versions: 1 2 3 4 5 6 7 8 9 10 11 12 13 14 15 16 17 18 19 20 21 22 23 24 25 26 27 28 29 30 31 32 33 34 35 36 37 38 39 40 41
000
FTUS41 KBOX 222344
TAFBDL
TAF
KBDL 222344Z 2300/2406 06004KT P6SM SCT015 BKN030 OVC060
     FM230300 07004KT P6SM OVC015
     FM230600 VRB03KT P6SM BKN020
     FM231300 04005KT P6SM BKN025
     FM231500 05005KT P6SM BKN040
     FM232000 06005KT P6SM SCT130=

USA.gov is the U.S. government's official web portal to all federal, state and local government web resources and services.